Terminal Aerodrome Forecast
Issued by NWS

Home | Current Version | Previous Version | Text Only | Print | Product List | Glossary On
Versions: 1 2 3 4 5 6 7 8 9 10 11 12 13 14 15 16 17 18
000
FTUS44 KHGX 260306 AAA
TAFUTS
TAF AMD
KUTS 260306Z 2603/2624 VRB02KT P6SM SCT004 SCT120
      TEMPO 2603/2605 BKN004
     FM261800 14004KT P6SM VCTS SCT050CB=

USA.gov is the U.S. government's official web portal to all federal, state and local government web resources and services.